Time;durP1;ratioP1;P1;durP2;ratioP2;P2;SDS_P1;SDS_P2;PMS_P1;PMS_P2;Temp;Humidity;BMP_temperature;BMP_pressure;BME280_temperature;BME280_humidity;BME280_pressure;Samples;Min_cycle;Max_cycle;Signal;HPM_P1;HPM_P2
2022/10/17 00:00:29;;;;;;;12.20;4.45;;;;;;;;;;1026118;28;20382;-77
2022/10/17 00:01:00;;;;;;;15.48;4.78;;;;;;;;;;1027101;28;20026;-78
2022/10/17 00:01:31;;;;;;;14.07;4.10;;;;;;;;;;1024881;28;20036;-77
2022/10/17 00:02:01;;;;;;;20.52;4.45;;;;;;;;;;1025320;28;20067;-77
2022/10/17 00:02:32;;;;;;;15.88;4.90;;;;;;;;;;1024539;28;20038;-77
2022/10/17 00:03:03;;;;;;;17.27;4.07;;;;;;;;;;1029163;28;20034;-77
2022/10/17 00:03:35;;;;;;;16.63;5.32;;;;;;;;;;1027218;28;20129;-77
2022/10/17 00:04:05;;;;;;;19.98;5.55;;;;;;;;;;1027222;28;20019;-77
2022/10/17 00:04:36;;;;;;;12.30;4.88;;;;;;;;;;1027185;28;20030;-77
2022/10/17 00:05:06;;;;;;;10.60;3.58;;;;;;;;;;1027387;28;20031;-77
2022/10/17 00:05:40;;;;;;;6.20;3.03;;;;;;;;;;1030916;28;20026;-77
2022/10/17 00:06:12;;;;;;;11.07;3.67;;;;;;;;;;1031248;28;20125;-77
2022/10/17 00:06:42;;;;;;;14.07;3.20;;;;;;;;;;1031336;28;20026;-77
2022/10/17 00:07:13;;;;;;;12.57;4.13;;;;;;;;;;1030927;28;20060;-77
2022/10/17 00:07:43;;;;;;;8.23;4.80;;;;;;;;;;1027862;28;20113;-77
2022/10/17 00:08:15;;;;;;;15.75;5.65;;;;;;;;;;1027641;28;20026;-77
2022/10/17 00:08:46;;;;;;;27.17;5.57;;;;;;;;;;1027884;28;20030;-77
2022/10/17 00:09:16;;;;;;;8.45;4.05;;;;;;;;;;1027804;28;20475;-77
2022/10/17 00:09:47;;;;;;;21.20;5.55;;;;;;;;;;1027842;28;20030;-77
2022/10/17 00:10:18;;;;;;;8.38;4.35;;;;;;;;;;1027599;28;20364;-77
2022/10/17 00:10:55;;;;;;;13.85;3.92;;;;;;;;;;1027273;28;20101;-77
2022/10/17 00:11:26;;;;;;;13.50;4.82;;;;;;;;;;1027561;28;20026;-77
2022/10/17 00:11:56;;;;;;;9.13;3.60;;;;;;;;;;1027137;28;20559;-77
2022/10/17 00:12:27;;;;;;;14.55;4.72;;;;;;;;;;1027002;28;20125;-77
2022/10/17 00:12:58;;;;;;;12.80;4.53;;;;;;;;;;1027474;28;20117;-77
2022/10/17 00:13:29;;;;;;;16.60;3.92;;;;;;;;;;1027223;28;20082;-77
2022/10/17 00:13:59;;;;;;;10.95;3.83;;;;;;;;;;1027454;28;20415;-77
2022/10/17 00:14:30;;;;;;;16.05;5.13;;;;;;;;;;1026790;28;20022;-77
2022/10/17 00:15:01;;;;;;;12.00;5.45;;;;;;;;;;1027264;28;20022;-77
2022/10/17 00:15:32;;;;;;;16.17;5.80;;;;;;;;;;1026814;28;20062;-77
2022/10/17 00:16:03;;;;;;;8.55;4.20;;;;;;;;;;1027492;28;20019;-77
2022/10/17 00:16:36;;;;;;;10.10;4.63;;;;;;;;;;1030822;28;20022;-77
2022/10/17 00:17:06;;;;;;;11.95;4.05;;;;;;;;;;1027063;28;20399;-77
2022/10/17 00:17:37;;;;;;;16.67;5.93;;;;;;;;;;1026805;28;20113;-77
2022/10/17 00:18:07;;;;;;;18.98;4.95;;;;;;;;;;1027065;28;20030;-77
2022/10/17 00:18:38;;;;;;;15.75;4.25;;;;;;;;;;1026905;28;20030;-77
2022/10/17 00:19:09;;;;;;;14.95;6.25;;;;;;;;;;1030836;28;20029;-77
2022/10/17 00:19:39;;;;;;;21.38;7.53;;;;;;;;;;1030835;28;20018;-77
2022/10/17 00:20:10;;;;;;;11.02;6.25;;;;;;;;;;1031057;28;20093;-77
2022/10/17 00:20:41;;;;;;;10.45;5.85;;;;;;;;;;1030861;28;20021;-77
2022/10/17 00:21:15;;;;;;;15.30;5.85;;;;;;;;;;1031105;28;20021;-77
2022/10/17 00:21:47;;;;;;;14.95;7.05;;;;;;;;;;1030720;28;20037;-77
2022/10/17 00:22:18;;;;;;;19.02;7.28;;;;;;;;;;1031297;28;20026;-77
2022/10/17 00:22:48;;;;;;;21.00;7.25;;;;;;;;;;1030652;28;20030;-77
2022/10/17 00:23:19;;;;;;;19.35;6.68;;;;;;;;;;1027293;28;20027;-77
2022/10/17 00:23:49;;;;;;;14.57;6.68;;;;;;;;;;1025485;28;20051;-77
2022/10/17 00:24:20;;;;;;;18.58;7.05;;;;;;;;;;1029556;28;20062;-77
2022/10/17 00:24:51;;;;;;;11.75;5.47;;;;;;;;;;1027266;28;20077;-77
2022/10/17 00:25:21;;;;;;;14.57;6.50;;;;;;;;;;1029310;28;20111;-78
2022/10/17 00:26:02;;;;;;;18.63;6.00;;;;;;;;;;1027578;28;20109;-77
2022/10/17 00:26:32;;;;;;;12.23;6.63;;;;;;;;;;1027432;28;20058;-77
2022/10/17 00:27:03;;;;;;;23.63;8.95;;;;;;;;;;1031273;28;20026;-77
2022/10/17 00:27:35;;;;;;;19.25;5.93;;;;;;;;;;1031160;28;20030;-77
2022/10/17 00:28:08;;;;;;;17.92;8.00;;;;;;;;;;1031126;28;20109;-77
2022/10/17 00:28:38;;;;;;;17.90;7.07;;;;;;;;;;1030429;28;20023;-77
2022/10/17 00:29:09;;;;;;;28.48;9.27;;;;;;;;;;1030704;28;20026;-77
2022/10/17 00:29:39;;;;;;;18.58;7.63;;;;;;;;;;1030504;28;20112;-77
2022/10/17 00:30:11;;;;;;;15.93;8.45;;;;;;;;;;1031171;28;20500;-77
2022/10/17 00:30:42;;;;;;;29.65;9.07;;;;;;;;;;1031162;28;20080;-77
2022/10/17 00:31:15;;;;;;;21.13;8.77;;;;;;;;;;1031169;28;20026;-77
2022/10/17 00:31:46;;;;;;;20.00;7.80;;;;;;;;;;1030724;28;20029;-77
2022/10/17 00:32:17;;;;;;;18.35;7.75;;;;;;;;;;1027672;28;20062;-77
2022/10/17 00:32:48;;;;;;;20.25;8.90;;;;;;;;;;1030865;28;20025;-77
2022/10/17 00:33:18;;;;;;;24.02;8.02;;;;;;;;;;1031161;28;20113;-77
2022/10/17 00:33:49;;;;;;;16.90;7.85;;;;;;;;;;1031191;28;20120;-77
2022/10/17 00:34:20;;;;;;;21.05;6.47;;;;;;;;;;1031036;28;20124;-77
2022/10/17 00:34:50;;;;;;;30.42;8.50;;;;;;;;;;1031396;28;20057;-77
2022/10/17 00:35:21;;;;;;;17.38;6.57;;;;;;;;;;1027570;28;20109;-77
2022/10/17 00:36:00;;;;;;;21.65;8.43;;;;;;;;;;1027663;28;20034;-77
2022/10/17 00:36:31;;;;;;;23.80;8.10;;;;;;;;;;1029084;28;20161;-77
2022/10/17 00:37:01;;;;;;;20.33;9.07;;;;;;;;;;1029509;28;20031;-77
2022/10/17 00:37:32;;;;;;;26.15;7.78;;;;;;;;;;1029838;28;20499;-77
2022/10/17 00:38:03;;;;;;;22.42;6.88;;;;;;;;;;1028610;28;20019;-77
2022/10/17 00:38:34;;;;;;;25.23;6.57;;;;;;;;;;1027439;28;20035;-77
2022/10/17 00:39:04;;;;;;;25.42;7.72;;;;;;;;;;1027753;28;20077;-77
2022/10/17 00:39:35;;;;;;;18.38;7.97;;;;;;;;;;1027496;28;20029;-77
2022/10/17 00:40:06;;;;;;;17.05;7.47;;;;;;;;;;1027467;28;20093;-77
2022/10/17 00:40:36;;;;;;;17.65;7.15;;;;;;;;;;1027550;28;20033;-77
2022/10/17 00:41:07;;;;;;;20.90;7.72;;;;;;;;;;1027101;28;20057;-77
2022/10/17 00:41:38;;;;;;;14.45;7.80;;;;;;;;;;1027619;28;20023;-77
2022/10/17 00:42:11;;;;;;;37.80;8.73;;;;;;;;;;1027504;28;20019;-77
2022/10/17 00:42:41;;;;;;;27.13;8.13;;;;;;;;;;1027566;28;20054;-77
2022/10/17 00:43:16;;;;;;;24.15;8.65;;;;;;;;;;1027510;28;20023;-77
2022/10/17 00:43:58;;;;;;;26.52;8.77;;;;;;;;;;1026756;28;20084;-77
2022/10/17 00:44:29;;;;;;;20.67;7.63;;;;;;;;;;1027492;28;20074;-77
2022/10/17 00:45:05;;;;;;;23.15;7.93;;;;;;;;;;1027521;28;20031;-76
2022/10/17 00:45:36;;;;;;;16.42;6.80;;;;;;;;;;1027050;28;20024;-77
2022/10/17 00:46:07;;;;;;;33.97;7.80;;;;;;;;;;1027446;28;20019;-77
2022/10/17 00:46:37;;;;;;;15.23;6.57;;;;;;;;;;1027444;28;20010;-77
2022/10/17 00:47:10;;;;;;;12.48;6.72;;;;;;;;;;1027201;28;20035;-77
2022/10/17 00:47:41;;;;;;;26.27;8.10;;;;;;;;;;1027141;28;20022;-77
2022/10/17 00:48:12;;;;;;;22.55;7.97;;;;;;;;;;1027345;28;20562;-77
2022/10/17 00:48:43;;;;;;;24.55;8.52;;;;;;;;;;1027545;28;20031;-77
2022/10/17 00:49:13;;;;;;;24.88;8.05;;;;;;;;;;1031672;28;20002;-77
2022/10/17 00:49:44;;;;;;;22.80;7.32;;;;;;;;;;1029692;28;20018;-77
2022/10/17 00:50:52;;;;;;;19.80;8.55;;;;;;;;;;1037319;28;20053;-75
2022/10/17 00:51:26;;;;;;;20.60;7.30;;;;;;;;;;1037964;28;20057;-75
2022/10/17 00:52:12;;;;;;;28.25;7.13;;;;;;;;;;1039320;28;20052;-76
2022/10/17 00:52:43;;;;;;;18.73;6.47;;;;;;;;;;1034023;28;20025;-75
2022/10/17 00:53:14;;;;;;;24.08;7.65;;;;;;;;;;1030156;28;20022;-76
2022/10/17 00:53:46;;;;;;;22.85;7.28;;;;;;;;;;1030719;28;20027;-75
2022/10/17 00:54:19;;;;;;;23.13;7.43;;;;;;;;;;1032101;28;20026;-76
2022/10/17 00:54:55;;;;;;;17.42;7.07;;;;;;;;;;1036237;28;20021;-75
2022/10/17 00:55:28;;;;;;;23.63;8.02;;;;;;;;;;1037603;28;20019;-74
2022/10/17 00:55:59;;;;;;;28.42;6.95;;;;;;;;;;1033981;28;20411;-75
2022/10/17 00:56:31;;;;;;;21.40;6.70;;;;;;;;;;1030023;28;20018;-76
2022/10/17 00:57:01;;;;;;;15.23;6.50;;;;;;;;;;1033397;28;20027;-76
2022/10/17 00:57:32;;;;;;;26.05;6.20;;;;;;;;;;1031657;28;20022;-76
2022/10/17 00:58:04;;;;;;;27.50;7.32;;;;;;;;;;1033549;28;20030;-75
2022/10/17 00:58:35;;;;;;;23.20;7.55;;;;;;;;;;1033244;28;20540;-75
2022/10/17 00:59:08;;;;;;;24.70;7.53;;;;;;;;;;1035739;28;20021;-76
2022/10/17 00:59:42;;;;;;;13.32;7.32;;;;;;;;;;1036349;28;20033;-75
2022/10/17 01:00:15;;;;;;;28.75;7.75;;;;;;;;;;1023790;28;20124;-76
2022/10/17 01:00:47;;;;;;;16.75;6.97;;;;;;;;;;1032392;28;20033;-76
2022/10/17 01:01:18;;;;;;;16.77;7.38;;;;;;;;;;1032928;28;20030;-75
2022/10/17 01:01:58;;;;;;;22.88;7.25;;;;;;;;;;1030708;28;20025;-76
2022/10/17 01:02:31;;;;;;;26.42;7.93;;;;;;;;;;1030533;28;20072;-76
2022/10/17 01:03:01;;;;;;;21.33;6.93;;;;;;;;;;1036112;28;20079;-75
2022/10/17 01:03:32;;;;;;;18.35;7.32;;;;;;;;;;1032238;28;20014;-76
2022/10/17 01:04:03;;;;;;;19.77;8.63;;;;;;;;;;1033738;28;20093;-75
2022/10/17 01:04:38;;;;;;;23.65;7.80;;;;;;;;;;1029766;28;20208;-76
2022/10/17 01:05:11;;;;;;;17.75;7.18;;;;;;;;;;1028219;28;20093;-75
2022/10/17 01:05:54;;;;;;;27.90;11.45;;;;;;;;;;995908;28;20098;-76
2022/10/17 01:06:30;;;;;;;37.83;10.95;;;;;;;;;;1035590;28;20030;-76
2022/10/17 01:07:11;;;;;;;27.63;8.77;;;;;;;;;;1033554;28;20026;-75
2022/10/17 01:07:45;;;;;;;33.08;8.73;;;;;;;;;;1033019;28;20425;-76
2022/10/17 01:08:16;;;;;;;31.25;9.85;;;;;;;;;;1035398;28;20018;-76
2022/10/17 01:08:47;;;;;;;23.88;8.32;;;;;;;;;;1034212;28;20050;-75
2022/10/17 01:09:18;;;;;;;24.70;8.82;;;;;;;;;;1035226;28;20489;-75
2022/10/17 01:09:49;;;;;;;20.30;8.07;;;;;;;;;;1037435;28;20014;-75
2022/10/17 01:10:20;;;;;;;24.50;7.63;;;;;;;;;;1032923;28;20541;-75
2022/10/17 01:10:59;;;;;;;17.08;8.60;;;;;;;;;;1032200;28;20438;-76
2022/10/17 01:11:38;;;;;;;27.23;8.38;;;;;;;;;;1032033;28;20033;-75
2022/10/17 01:12:14;;;;;;;29.13;8.05;;;;;;;;;;1027321;28;20487;-75
2022/10/17 01:13:00;;;;;;;25.00;9.32;;;;;;;;;;1032471;28;20029;-76
2022/10/17 01:13:38;;;;;;;31.83;12.52;;;;;;;;;;1035978;28;20025;-75
2022/10/17 01:14:12;;;;;;;31.88;12.10;;;;;;;;;;1036745;28;20025;-76
2022/10/17 01:14:52;;;;;;;40.83;13.88;;;;;;;;;;1036614;28;20489;-75
2022/10/17 01:15:22;;;;;;;30.80;12.00;;;;;;;;;;1031047;28;20026;-75
2022/10/17 01:16:06;;;;;;;42.20;13.23;;;;;;;;;;1032220;28;20030;-76
2022/10/17 01:16:44;;;;;;;35.35;14.27;;;;;;;;;;1034522;28;20457;-75
2022/10/17 01:17:17;;;;;;;35.58;11.98;;;;;;;;;;1034279;28;20022;-75
2022/10/17 01:17:53;;;;;;;37.90;13.88;;;;;;;;;;1035708;28;20544;-75
2022/10/17 01:18:27;;;;;;;34.45;11.10;;;;;;;;;;1035768;28;20033;-76
2022/10/17 01:19:03;;;;;;;27.42;10.73;;;;;;;;;;1037366;28;20436;-77
2022/10/17 01:19:40;;;;;;;31.10;11.95;;;;;;;;;;1035793;28;20086;-76
2022/10/17 01:20:11;;;;;;;43.97;15.10;;;;;;;;;;1034222;28;20553;-75
2022/10/17 01:21:02;;;;;;;52.03;17.88;;;;;;;;;;1032162;28;20124;-76
2022/10/17 01:21:44;;;;;;;54.03;21.35;;;;;;;;;;1022744;28;20028;-77
2022/10/17 01:22:16;;;;;;;50.55;19.20;;;;;;;;;;1030710;28;20030;-76
2022/10/17 01:22:56;;;;;;;58.33;21.88;;;;;;;;;;1029711;28;20538;-75
2022/10/17 01:23:53;;;;;;;52.55;20.55;;;;;;;;;;1032053;28;20496;-76
2022/10/17 01:24:43;;;;;;;47.47;18.83;;;;;;;;;;1034724;28;20037;-76
2022/10/17 01:25:32;;;;;;;54.10;21.50;;;;;;;;;;1032773;28;20615;-77
2022/10/17 01:26:21;;;;;;;65.10;20.52;;;;;;;;;;1031382;28;20238;-78
2022/10/17 01:27:10;;;;;;;61.05;14.25;;;;;;;;;;1037503;28;20083;-76
2022/10/17 01:27:48;;;;;;;38.20;14.73;;;;;;;;;;1033631;28;20572;-76
2022/10/17 01:28:24;;;;;;;58.78;16.05;;;;;;;;;;1035561;28;20088;-76
2022/10/17 01:29:13;;;;;;;31.48;11.13;;;;;;;;;;1032141;28;20026;-76
2022/10/17 01:29:52;;;;;;;21.25;7.68;;;;;;;;;;1029955;28;20541;-77
2022/10/17 01:30:28;;;;;;;35.85;9.23;;;;;;;;;;1029550;28;20046;-76
2022/10/17 01:31:12;;;;;;;21.33;7.72;;;;;;;;;;1035272;28;20105;-76
2022/10/17 01:31:47;;;;;;;23.65;7.53;;;;;;;;;;1032076;28;20600;-77
2022/10/17 01:32:35;;;;;;;19.00;7.80;;;;;;;;;;1035340;28;20029;-77
2022/10/17 01:33:18;;;;;;;25.90;8.43;;;;;;;;;;1037326;28;20029;-76
2022/10/17 01:34:01;;;;;;;17.45;9.27;;;;;;;;;;1039201;28;20036;-76
2022/10/17 01:34:50;;;;;;;27.80;12.75;;;;;;;;;;1034081;28;20079;-76
2022/10/17 01:35:29;;;;;;;19.15;7.93;;;;;;;;;;1028241;28;20052;-76
2022/10/17 01:36:06;;;;;;;26.27;9.93;;;;;;;;;;1029756;28;20144;-76
2022/10/17 01:36:55;;;;;;;26.15;9.68;;;;;;;;;;1035205;28;20627;-76
2022/10/17 01:38:40;;;;;;;36.85;10.63;;;;;;;;;;1036015;28;20179;-76
2022/10/17 01:39:34;;;;;;;21.48;9.05;;;;;;;;;;1035949;28;20029;-76
2022/10/17 01:40:15;;;;;;;21.83;10.98;;;;;;;;;;1037328;28;20029;-76
2022/10/17 01:40:49;;;;;;;19.27;9.07;;;;;;;;;;1037146;28;20056;-77
2022/10/17 01:42:39;;;;;;;43.35;8.10;;;;;;;;;;814561;22;20245;-76
2022/10/17 01:43:20;;;;;;;17.52;6.88;;;;;;;;;;952780;22;20033;-76
2022/10/17 01:43:59;;;;;;;21.45;6.65;;;;;;;;;;1038173;28;20099;-76
2022/10/17 01:44:49;;;;;;;21.50;8.57;;;;;;;;;;1036161;28;20444;-76
2022/10/17 01:45:34;;;;;;;29.48;9.93;;;;;;;;;;1032984;28;20040;-76
2022/10/17 01:46:15;;;;;;;30.63;7.72;;;;;;;;;;1030616;28;20034;-76
2022/10/17 01:46:53;;;;;;;37.53;6.72;;;;;;;;;;1032891;28;20533;-77
2022/10/17 01:47:44;;;;;;;26.67;5.93;;;;;;;;;;1033287;26;20051;-77
2022/10/17 01:48:22;;;;;;;22.23;7.28;;;;;;;;;;1038030;28;20532;-76
2022/10/17 01:48:57;;;;;;;20.33;6.30;;;;;;;;;;1040321;28;20108;-77
2022/10/17 01:49:30;;;;;;;24.38;6.53;;;;;;;;;;1041786;28;20452;-76
2022/10/17 01:50:12;;;;;;;16.80;5.75;;;;;;;;;;1041199;28;20157;-76
2022/10/17 01:50:52;;;;;;;24.98;6.05;;;;;;;;;;1037281;28;20034;-77
2022/10/17 01:51:38;;;;;;;23.60;6.68;;;;;;;;;;1015622;28;20124;-78
2022/10/17 01:52:13;;;;;;;22.10;6.57;;;;;;;;;;1032079;28;20654;-77
2022/10/17 01:52:55;;;;;;;14.82;5.85;;;;;;;;;;1033464;28;20030;-76
2022/10/17 01:53:29;;;;;;;22.42;6.30;;;;;;;;;;1034123;28;20076;-77
2022/10/17 01:54:06;;;;;;;20.85;6.95;;;;;;;;;;1034563;28;20029;-77
2022/10/17 01:54:48;;;;;;;19.02;6.22;;;;;;;;;;1034402;28;20036;-76
2022/10/17 01:55:24;;;;;;;23.77;6.50;;;;;;;;;;1035503;28;20107;-77
2022/10/17 01:55:57;;;;;;;22.63;5.35;;;;;;;;;;1032556;28;20034;-77
2022/10/17 01:56:31;;;;;;;25.20;6.75;;;;;;;;;;1031236;28;20035;-76
2022/10/17 01:57:05;;;;;;;24.38;6.50;;;;;;;;;;1032744;28;20104;-76
2022/10/17 01:57:39;;;;;;;15.43;6.88;;;;;;;;;;1035375;28;20032;-76
2022/10/17 01:58:13;;;;;;;13.77;7.25;;;;;;;;;;1037661;28;20509;-77
2022/10/17 01:58:50;;;;;;;17.60;7.10;;;;;;;;;;1039569;28;20029;-76
2022/10/17 01:59:27;;;;;;;30.88;7.55;;;;;;;;;;1032217;28;20032;-76
2022/10/17 01:59:59;;;;;;;22.38;5.78;;;;;;;;;;1030576;28;20129;-77
2022/10/17 02:00:33;;;;;;;19.70;6.65;;;;;;;;;;1031134;28;20100;-75
2022/10/17 02:01:06;;;;;;;24.92;7.85;;;;;;;;;;1031960;28;20033;-75
2022/10/17 02:01:39;;;;;;;41.72;8.70;;;;;;;;;;1029674;28;20077;-76
2022/10/17 02:02:12;;;;;;;22.83;6.93;;;;;;;;;;1032455;28;20033;-76
2022/10/17 02:02:48;;;;;;;17.90;6.65;;;;;;;;;;1032072;28;20057;-76
2022/10/17 02:03:24;;;;;;;19.33;7.60;;;;;;;;;;1034080;28;20117;-76
2022/10/17 02:03:57;;;;;;;18.70;9.88;;;;;;;;;;1037675;28;20049;-76
2022/10/17 02:04:29;;;;;;;26.45;13.38;;;;;;;;;;1030981;28;20376;-77
2022/10/17 02:05:02;;;;;;;21.63;11.07;;;;;;;;;;1032023;28;20025;-76
2022/10/17 02:05:40;;;;;;;28.85;12.60;;;;;;;;;;1031943;28;20041;-77
2022/10/17 02:06:12;;;;;;;31.05;15.43;;;;;;;;;;1032985;28;20025;-77
2022/10/17 02:06:49;;;;;;;45.58;14.40;;;;;;;;;;1036839;28;20576;-77
2022/10/17 02:07:20;;;;;;;28.58;12.55;;;;;;;;;;1032934;28;20049;-77
2022/10/17 02:07:52;;;;;;;24.48;12.55;;;;;;;;;;1032499;28;20040;-75
2022/10/17 02:08:25;;;;;;;38.92;12.35;;;;;;;;;;1033871;28;20180;-76
2022/10/17 02:08:56;;;;;;;32.97;13.98;;;;;;;;;;1036352;28;20030;-76
2022/10/17 02:09:28;;;;;;;30.80;12.90;;;;;;;;;;1037613;28;20156;-75
2022/10/17 02:10:01;;;;;;;28.20;12.55;;;;;;;;;;1034585;28;20045;-75
2022/10/17 02:10:39;;;;;;;36.53;12.40;;;;;;;;;;1036500;28;20033;-76
2022/10/17 02:11:15;;;;;;;24.08;10.55;;;;;;;;;;1034987;28;20193;-76
2022/10/17 02:12:08;;;;;;;28.05;13.20;;;;;;;;;;1035143;28;20036;-77
2022/10/17 02:12:41;;;;;;;43.47;12.30;;;;;;;;;;1022502;28;20500;-76
2022/10/17 02:13:36;;;;;;;34.72;12.07;;;;;;;;;;1031904;28;20041;-77
2022/10/17 02:14:22;;;;;;;22.92;11.52;;;;;;;;;;1028023;28;20034;-77
2022/10/17 02:15:10;;;;;;;35.05;13.05;;;;;;;;;;1031205;28;20030;-75
2022/10/17 02:15:53;;;;;;;35.05;13.07;;;;;;;;;;1030014;28;20029;-75
2022/10/17 02:16:43;;;;;;;35.38;10.73;;;;;;;;;;1030457;28;20077;-75
2022/10/17 02:17:40;;;;;;;39.90;10.43;;;;;;;;;;1029819;28;20025;-76
2022/10/17 02:18:16;;;;;;;26.38;10.52;;;;;;;;;;1033383;28;20262;-78
2022/10/17 02:18:56;;;;;;;40.97;13.93;;;;;;;;;;1033058;28;20036;-76
2022/10/17 02:19:27;;;;;;;22.27;10.40;;;;;;;;;;1036395;28;20055;-76
2022/10/17 02:20:15;;;;;;;40.25;12.02;;;;;;;;;;1033305;28;20615;-78
2022/10/17 02:20:46;;;;;;;42.45;13.70;;;;;;;;;;1033937;28;20453;-76
2022/10/17 02:21:33;;;;;;;55.50;12.88;;;;;;;;;;1036544;28;20018;-75
2022/10/17 02:22:20;;;;;;;29.23;11.00;;;;;;;;;;1037577;28;20245;-78
2022/10/17 02:22:57;;;;;;;31.55;11.23;;;;;;;;;;1034285;28;20116;-76
2022/10/17 02:23:35;;;;;;;34.70;13.45;;;;;;;;;;1032587;28;20045;-76
2022/10/17 02:24:13;;;;;;;42.90;11.98;;;;;;;;;;1036743;28;20056;-76
2022/10/17 02:24:55;;;;;;;28.42;7.95;;;;;;;;;;1033864;28;20028;-76
2022/10/17 02:25:46;;;;;;;29.55;7.13;;;;;;;;;;1035400;28;20124;-76
2022/10/17 02:26:42;;;;;;;21.90;7.65;;;;;;;;;;1031231;28;20129;-77
2022/10/17 02:27:17;;;;;;;;;;;;;;;;;;1035325;28;20030;-76
2022/10/17 02:27:51;;;;;;;22.65;9.93;;;;;;;;;;1036419;28;20320;-76
2022/10/17 02:28:31;;;;;;;34.05;8.35;;;;;;;;;;1036427;28;20488;-75
2022/10/17 02:29:20;;;;;;;31.42;6.63;;;;;;;;;;1036897;28;20067;-77
2022/10/17 02:30:12;;;;;;;23.85;6.70;;;;;;;;;;1034109;28;20018;-77
2022/10/17 02:30:49;;;;;;;24.83;8.10;;;;;;;;;;1032376;28;20041;-76
2022/10/17 02:31:29;;;;;;;23.35;8.77;;;;;;;;;;1031224;28;20045;-77
2022/10/17 02:32:06;;;;;;;25.63;6.97;;;;;;;;;;1036621;28;20096;-77
2022/10/17 02:32:41;;;;;;;35.35;8.75;;;;;;;;;;1037945;28;20025;-78
2022/10/17 02:33:21;;;;;;;16.85;6.68;;;;;;;;;;1033667;28;20548;-78
2022/10/17 02:33:55;;;;;;;30.05;7.88;;;;;;;;;;1036638;28;20394;-78
2022/10/17 02:34:26;;;;;;;25.30;7.85;;;;;;;;;;1032400;28;20025;-74
2022/10/17 02:35:05;;;;;;;50.08;7.80;;;;;;;;;;1035593;28;20061;-76
2022/10/17 02:35:44;;;;;;;23.70;6.10;;;;;;;;;;1028778;28;20131;-77
2022/10/17 02:36:20;;;;;;;30.92;6.30;;;;;;;;;;1032292;28;20066;-77
2022/10/17 02:36:55;;;;;;;18.85;5.90;;;;;;;;;;1034719;28;20025;-77
2022/10/17 02:37:38;;;;;;;16.98;6.97;;;;;;;;;;1032782;28;20053;-77
2022/10/17 02:39:00;;;;;;;;;;;;;;;;;;283946;26;20511;-77
2022/10/17 02:39:35;;;;;;;9.80;5.75;;;;;;;;;;1016856;28;19928;-76
2022/10/17 02:40:48;;;;;;;27.80;7.93;;;;;;;;;;1037871;28;20057;-76
2022/10/17 02:41:20;;;;;;;15.10;5.38;;;;;;;;;;1041197;28;20057;-78
2022/10/17 02:41:51;;;;;;;26.75;6.85;;;;;;;;;;1039626;28;20065;-77
2022/10/17 02:42:23;;;;;;;27.70;7.03;;;;;;;;;;1038312;28;20056;-78
2022/10/17 02:42:54;;;;;;;19.30;7.05;;;;;;;;;;1037771;28;20026;-78
2022/10/17 02:43:26;;;;;;;21.88;6.47;;;;;;;;;;1037223;28;20649;-77
2022/10/17 02:43:58;;;;;;;17.60;6.28;;;;;;;;;;1039588;28;20057;-77
2022/10/17 02:44:30;;;;;;;12.60;6.00;;;;;;;;;;1036448;28;20021;-77
2022/10/17 02:45:01;;;;;;;17.50;4.82;;;;;;;;;;1034839;28;20078;-77
2022/10/17 02:45:35;;;;;;;17.58;6.15;;;;;;;;;;1038641;28;20093;-78
2022/10/17 02:46:07;;;;;;;18.67;6.45;;;;;;;;;;1041315;28;20010;-77
2022/10/17 02:46:40;;;;;;;15.55;6.43;;;;;;;;;;1036891;28;20061;-78
2022/10/17 02:47:25;;;;;;;31.33;5.18;;;;;;;;;;1035096;28;20040;-78
2022/10/17 02:47:59;;;;;;;16.00;6.30;;;;;;;;;;1032403;28;20023;-79
2022/10/17 02:48:34;;;;;;;18.55;4.68;;;;;;;;;;1031038;28;20077;-77
2022/10/17 02:49:09;;;;;;;21.90;6.18;;;;;;;;;;1035692;28;20030;-79
2022/10/17 02:49:43;;;;;;;24.50;8.32;;;;;;;;;;1036203;28;20148;-76
2022/10/17 02:50:14;;;;;;;33.03;9.07;;;;;;;;;;1035875;28;20108;-78
2022/10/17 02:50:50;;;;;;;23.52;8.00;;;;;;;;;;1037957;28;20021;-77
2022/10/17 02:51:27;;;;;;;20.73;8.95;;;;;;;;;;1036013;28;20030;-78
2022/10/17 02:52:18;;;;;;;31.95;10.65;;;;;;;;;;1034931;28;20041;-78
2022/10/17 02:52:56;;;;;;;48.35;13.38;;;;;;;;;;1033929;28;20500;-78
2022/10/17 02:53:31;;;;;;;24.10;7.63;;;;;;;;;;1039990;28;20053;-79
2022/10/17 02:54:20;;;;;;;29.60;8.38;;;;;;;;;;1036598;28;20359;-77
2022/10/17 02:54:58;;;;;;;29.58;6.60;;;;;;;;;;1037061;28;20152;-78
2022/10/17 02:55:35;;;;;;;24.95;8.65;;;;;;;;;;1036888;28;20028;-78
2022/10/17 02:56:09;;;;;;;22.27;9.07;;;;;;;;;;1037674;28;20108;-78
2022/10/17 02:56:43;;;;;;;47.45;11.63;;;;;;;;;;1037852;28;20029;-78
2022/10/17 02:57:22;;;;;;;21.05;6.18;;;;;;;;;;1036752;28;20539;-78
2022/10/17 02:57:55;;;;;;;20.55;5.97;;;;;;;;;;1036904;28;20022;-77
2022/10/17 02:58:31;;;;;;;16.80;5.47;;;;;;;;;;1035188;28;20045;-77
2022/10/17 02:59:02;;;;;;;19.55;5.15;;;;;;;;;;1035443;28;20036;-78
2022/10/17 02:59:34;;;;;;;37.75;13.95;;;;;;;;;;1034282;28;20030;-78
2022/10/17 03:00:07;;;;;;;46.50;9.00;;;;;;;;;;1031533;28;20062;-78
2022/10/17 03:00:39;;;;;;;11.10;5.53;;;;;;;;;;1030248;28;20022;-78
2022/10/17 03:01:10;;;;;;;18.80;7.13;;;;;;;;;;1030869;28;20305;-78
2022/10/17 03:01:41;;;;;;;26.88;7.18;;;;;;;;;;1033139;28;20026;-78
2022/10/17 03:02:11;;;;;;;15.43;4.70;;;;;;;;;;1035086;28;20041;-78
2022/10/17 03:02:48;;;;;;;32.85;7.07;;;;;;;;;;1040115;28;20128;-79
2022/10/17 03:03:21;;;;;;;34.72;7.72;;;;;;;;;;1039209;28;20030;-78
2022/10/17 03:04:06;;;;;;;34.67;7.43;;;;;;;;;;1032623;28;20489;-80
2022/10/17 03:04:41;;;;;;;39.30;9.18;;;;;;;;;;1032195;28;20036;-78
2022/10/17 03:05:14;;;;;;;15.70;5.45;;;;;;;;;;1026055;28;20597;-78
2022/10/17 03:05:45;;;;;;;24.92;6.30;;;;;;;;;;1027637;28;20095;-78
2022/10/17 03:06:17;;;;;;;29.95;8.15;;;;;;;;;;1029398;28;20038;-78
2022/10/17 03:06:48;;;;;;;24.13;7.47;;;;;;;;;;1025606;28;20033;-79
2022/10/17 03:07:19;;;;;;;18.33;6.68;;;;;;;;;;1029003;28;20050;-80
2022/10/17 03:07:50;;;;;;;39.70;7.68;;;;;;;;;;1035085;28;20038;-80
2022/10/17 03:08:22;;;;;;;29.67;9.55;;;;;;;;;;1033571;28;20490;-78
2022/10/17 03:08:53;;;;;;;29.88;6.68;;;;;;;;;;1030143;28;20402;-78
2022/10/17 03:09:28;;;;;;;25.70;7.40;;;;;;;;;;1026665;28;20022;-79
2022/10/17 03:10:00;;;;;;;32.83;9.00;;;;;;;;;;1030779;28;20031;-77
2022/10/17 03:10:31;;;;;;;45.17;8.32;;;;;;;;;;1028562;28;20315;-79
2022/10/17 03:11:11;;;;;;;35.20;7.53;;;;;;;;;;1035755;28;20034;-80
2022/10/17 03:14:49;;;;;;;;;;;;;;;;;;1122698;22;20049;-76
2022/10/17 03:17:10;;;;;;;18.50;4.15;;;;;;;;;;1038039;28;20092;-78
2022/10/17 03:17:42;;;;;;;25.20;5.05;;;;;;;;;;1037323;28;20789;-76
2022/10/17 03:18:13;;;;;;;48.20;6.90;;;;;;;;;;1041615;28;20960;-79
2022/10/17 03:18:47;;;;;;;12.40;4.60;;;;;;;;;;1037177;28;20087;-79
2022/10/17 03:19:19;;;;;;;18.45;6.25;;;;;;;;;;1037972;28;20049;-78
2022/10/17 03:19:49;;;;;;;31.45;5.82;;;;;;;;;;1038182;28;20125;-79
2022/10/17 03:20:21;;;;;;;17.98;5.15;;;;;;;;;;1034763;28;20022;-79
2022/10/17 03:20:58;;;;;;;24.40;6.80;;;;;;;;;;1034657;28;20761;-79
2022/10/17 03:21:29;;;;;;;33.58;5.75;;;;;;;;;;1032577;28;20065;-79
2022/10/17 03:22:02;;;;;;;23.80;9.00;;;;;;;;;;1033316;28;20050;-79
2022/10/17 03:22:37;;;;;;;29.48;7.88;;;;;;;;;;1033204;28;20025;-78
2022/10/17 03:23:09;;;;;;;15.60;6.53;;;;;;;;;;1034083;28;20796;-77
2022/10/17 03:23:40;;;;;;;19.58;8.27;;;;;;;;;;1033390;28;20026;-79
2022/10/17 03:24:11;;;;;;;18.08;7.95;;;;;;;;;;1033621;28;20022;-79
2022/10/17 03:24:46;;;;;;;31.58;6.88;;;;;;;;;;1033603;28;20030;-79
2022/10/17 03:25:17;;;;;;;26.88;8.32;;;;;;;;;;1032820;28;20133;-78
2022/10/17 03:25:54;;;;;;;18.75;5.30;;;;;;;;;;1032578;28;20077;-78
2022/10/17 03:26:29;;;;;;;13.98;5.50;;;;;;;;;;1032060;28;20029;-78
2022/10/17 03:27:01;;;;;;;16.98;5.20;;;;;;;;;;1031907;28;20022;-79
2022/10/17 03:27:35;;;;;;;26.95;4.88;;;;;;;;;;1038016;28;20447;-80
2022/10/17 03:28:07;;;;;;;20.88;5.20;;;;;;;;;;1035640;28;20060;-80
2022/10/17 03:28:41;;;;;;;19.80;4.72;;;;;;;;;;1039199;28;20048;-80
2022/10/17 03:29:13;;;;;;;16.05;5.38;;;;;;;;;;1034963;28;20037;-80
2022/10/17 03:29:45;;;;;;;18.13;5.18;;;;;;;;;;1032308;28;20102;-79
2022/10/17 03:30:21;;;;;;;12.80;4.78;;;;;;;;;;1032256;28;20027;-80
2022/10/17 03:30:54;;;;;;;21.27;5.57;;;;;;;;;;1035443;28;20643;-81
2022/10/17 03:31:28;;;;;;;42.70;7.47;;;;;;;;;;1037006;28;20030;-79
2022/10/17 03:32:02;;;;;;;43.00;5.63;;;;;;;;;;1027656;28;20480;-79
2022/10/17 03:32:37;;;;;;;20.23;5.85;;;;;;;;;;1032517;28;20026;-79
2022/10/17 03:33:08;;;;;;;14.30;4.72;;;;;;;;;;1035333;28;20014;-79
2022/10/17 03:33:40;;;;;;;15.25;5.30;;;;;;;;;;1036768;28;20053;-80
2022/10/17 03:34:11;;;;;;;25.90;7.80;;;;;;;;;;1033275;28;20153;-84
2022/10/17 03:34:43;;;;;;;25.50;5.53;;;;;;;;;;1032822;28;20022;-81
2022/10/17 03:35:18;;;;;;;19.33;5.28;;;;;;;;;;1035636;28;20025;-81
2022/10/17 03:35:52;;;;;;;25.52;5.57;;;;;;;;;;1033951;28;20340;-78
2022/10/17 03:36:27;;;;;;;18.30;6.22;;;;;;;;;;1035752;28;20036;-79
2022/10/17 03:36:59;;;;;;;21.95;5.85;;;;;;;;;;1032342;28;20516;-79